createdAt,value
2024-03-15T00:01:04.669Z,12.57
2024-03-15T00:03:31.521Z,10.82
2024-03-15T00:05:59.190Z,11.88
2024-03-15T00:08:28.753Z,12.18
2024-03-15T00:10:55.701Z,9.77
2024-03-15T00:13:22.800Z,11.98
2024-03-15T00:15:49.880Z,12.73
2024-03-15T00:18:19.408Z,12.18
2024-03-15T00:20:46.773Z,12.77
2024-03-15T00:23:13.590Z,12.68
2024-03-15T00:25:42.806Z,13.48
2024-03-15T00:28:10.518Z,12.43
2024-03-15T00:30:37.251Z,10.25
2024-03-15T00:33:04.315Z,14.95
2024-03-15T00:35:31.436Z,12.27
2024-03-15T00:37:58.283Z,12.73
2024-03-15T00:40:25.011Z,11.80
2024-03-15T00:42:51.770Z,14.30
2024-03-15T00:45:18.527Z,12.15
2024-03-15T00:47:45.455Z,12.63
2024-03-15T00:50:12.839Z,13.07
2024-03-15T00:52:39.573Z,12.40
2024-03-15T00:55:07.390Z,14.90
2024-03-15T00:57:34.178Z,12.07
2024-03-15T01:00:01.070Z,11.00
2024-03-15T01:02:31.258Z,16.58
2024-03-15T01:04:58.371Z,9.98
2024-03-15T01:07:25.041Z,11.85
2024-03-15T01:09:51.995Z,17.00
2024-03-15T01:12:18.992Z,13.82
2024-03-15T01:14:46.663Z,13.90
2024-03-15T01:17:13.547Z,15.02
2024-03-15T01:19:40.284Z,13.43
2024-03-15T01:22:08.879Z,12.98
2024-03-15T01:24:35.820Z,16.35
2024-03-15T01:27:04.014Z,15.85
2024-03-15T01:29:30.762Z,15.20
2024-03-15T01:31:58.774Z,14.60
2024-03-15T01:34:25.428Z,17.20
2024-03-15T01:36:52.254Z,13.45
2024-03-15T01:39:19.694Z,14.93
2024-03-15T01:41:46.556Z,17.30
2024-03-15T01:44:15.016Z,16.83
2024-03-15T01:46:43.315Z,13.32
2024-03-15T01:49:10.247Z,15.55
2024-03-15T01:51:38.342Z,15.85
2024-03-15T01:54:05.410Z,15.02
2024-03-15T01:56:32.259Z,15.27
2024-03-15T01:58:59.220Z,16.52
2024-03-15T02:01:25.990Z,13.68
2024-03-15T02:03:55.708Z,16.25
2024-03-15T02:06:22.962Z,12.95
2024-03-15T02:08:51.087Z,17.05
2024-03-15T02:11:17.825Z,14.48
2024-03-15T02:13:44.549Z,8.65
2024-03-15T02:16:11.285Z,14.40
2024-03-15T02:18:39.617Z,12.82
2024-03-15T02:21:06.351Z,14.63
2024-03-15T02:23:33.043Z,13.73
2024-03-15T02:25:59.917Z,14.80
2024-03-15T02:28:26.574Z,12.35
2024-03-15T02:30:53.354Z,11.55
2024-03-15T02:33:20.069Z,11.70
2024-03-15T02:35:47.720Z,13.20
2024-03-15T02:38:14.388Z,15.18
2024-03-15T02:40:40.991Z,13.18
2024-03-15T02:43:08.276Z,16.65
2024-03-15T02:45:35.360Z,13.25
2024-03-15T02:48:02.652Z,14.48
2024-03-15T02:50:29.460Z,15.43
2024-03-15T02:52:56.746Z,14.40
2024-03-15T02:55:23.755Z,13.18
2024-03-15T02:57:51.603Z,16.00
2024-03-15T03:00:18.467Z,16.27
2024-03-15T03:02:45.309Z,13.50
2024-03-15T03:05:13.580Z,13.02
2024-03-15T03:10:07.184Z,14.38
2024-03-15T03:12:34.063Z,14.98
2024-03-15T03:15:00.836Z,15.95
2024-03-15T03:17:27.582Z,14.50
2024-03-15T03:19:54.220Z,14.68
2024-03-15T03:22:20.875Z,14.93
2024-03-15T03:24:49.261Z,14.73
2024-03-15T03:27:16.140Z,16.75
2024-03-15T03:29:43.087Z,11.85
2024-03-15T03:32:12.851Z,13.25
2024-03-15T03:34:40.400Z,13.00
2024-03-15T03:37:07.177Z,17.52
2024-03-15T03:39:34.028Z,13.93
2024-03-15T03:42:04.114Z,15.30
2024-03-15T03:44:30.759Z,15.18
2024-03-15T03:46:57.366Z,14.45
2024-03-15T03:49:24.582Z,17.02
2024-03-15T03:51:51.237Z,17.20
2024-03-15T03:54:18.005Z,16.30
2024-03-15T03:56:44.673Z,14.02
2024-03-15T03:59:11.400Z,15.77
2024-03-15T04:01:38.295Z,14.30
2024-03-15T04:04:04.957Z,15.98
2024-03-15T04:06:31.626Z,15.88
2024-03-15T04:08:58.795Z,13.68
2024-03-15T04:11:26.091Z,14.73
2024-03-15T04:13:53.540Z,14.20
2024-03-15T04:16:20.448Z,14.15
2024-03-15T04:18:47.422Z,18.83
2024-03-15T04:21:14.791Z,12.50
2024-03-15T04:23:42.045Z,14.32
2024-03-15T04:26:09.152Z,16.85
2024-03-15T04:28:38.893Z,16.50
2024-03-15T04:31:06.906Z,13.93
2024-03-15T04:33:34.110Z,12.65
2024-03-15T04:36:06.003Z,15.98
2024-03-15T04:38:33.842Z,13.93
2024-03-15T04:41:10.907Z,16.30
2024-03-15T04:43:38.205Z,14.15
2024-03-15T04:46:05.301Z,15.30
2024-03-15T04:48:32.375Z,16.42
2024-03-15T04:50:59.298Z,14.45
2024-03-15T04:53:26.053Z,12.65
2024-03-15T04:55:53.562Z,17.60
2024-03-15T04:58:22.311Z,16.90
2024-03-15T05:00:49.792Z,16.08
2024-03-15T05:03:16.846Z,17.35
2024-03-15T05:05:43.596Z,16.73
2024-03-15T05:08:10.245Z,17.83
2024-03-15T05:10:37.120Z,15.95
2024-03-15T05:13:07.795Z,17.42
2024-03-15T05:15:35.138Z,14.85
2024-03-15T05:18:02.201Z,18.50
2024-03-15T05:20:29.299Z,15.38
2024-03-15T05:22:56.086Z,16.98
2024-03-15T05:25:22.751Z,16.80
2024-03-15T05:27:51.135Z,12.02
2024-03-15T05:30:20.172Z,15.13
2024-03-15T05:32:48.816Z,19.05
2024-03-15T05:35:20.254Z,18.05
2024-03-15T05:37:47.351Z,17.58
2024-03-15T05:40:14.695Z,18.27
2024-03-15T05:42:42.618Z,13.75
2024-03-15T05:45:09.457Z,16.25
2024-03-15T05:47:37.107Z,16.73
2024-03-15T05:50:05.870Z,15.80
2024-03-15T05:52:33.560Z,15.23
2024-03-15T05:55:04.125Z,15.90
2024-03-15T05:57:31.357Z,11.73
2024-03-15T05:59:59.534Z,12.35
2024-03-15T06:02:26.392Z,15.68
2024-03-15T06:04:53.590Z,18.88
2024-03-15T06:07:20.375Z,11.55
2024-03-15T06:09:47.094Z,12.70
2024-03-15T06:12:14.386Z,15.90
2024-03-15T06:14:41.131Z,15.23
2024-03-15T06:17:08.308Z,11.35
2024-03-15T06:19:35.095Z,16.00
2024-03-15T06:22:02.559Z,14.30
2024-03-15T06:24:29.583Z,16.55
2024-03-15T06:26:58.302Z,13.48
2024-03-15T06:29:34.101Z,13.13
2024-03-15T06:32:01.764Z,16.10
2024-03-15T06:34:32.553Z,14.73
2024-03-15T06:37:01.004Z,12.95
2024-03-15T06:39:38.672Z,13.40
2024-03-15T06:42:32.856Z,13.55
2024-03-15T06:45:09.917Z,12.40
2024-03-15T06:47:41.562Z,13.13
2024-03-15T06:50:15.216Z,13.50
2024-03-15T06:52:46.720Z,12.18
2024-03-15T06:55:16.334Z,12.98
2024-03-15T06:57:45.066Z,11.35
2024-03-15T07:00:12.921Z,12.80
2024-03-15T07:02:52.178Z,11.23
2024-03-15T07:05:19.060Z,9.00
2024-03-15T07:07:47.094Z,11.20
2024-03-15T07:10:15.603Z,11.98
2024-03-15T07:12:43.772Z,14.25
2024-03-15T07:15:11.497Z,12.75
2024-03-15T07:17:39.147Z,13.32
2024-03-15T07:20:10.428Z,12.60
2024-03-15T07:22:38.583Z,12.35
2024-03-15T07:25:07.977Z,11.93
2024-03-15T07:27:36.390Z,11.93
2024-03-15T07:30:06.080Z,11.93
2024-03-15T07:32:38.020Z,12.38
2024-03-15T07:35:06.384Z,11.77
2024-03-15T07:37:33.761Z,11.52
2024-03-15T07:40:00.983Z,9.27
2024-03-15T07:42:27.919Z,11.38
2024-03-15T07:44:56.076Z,12.52
2024-03-15T07:47:22.946Z,13.80
2024-03-15T07:49:52.705Z,13.18
2024-03-15T07:52:19.603Z,12.57
2024-03-15T07:54:46.752Z,13.95
2024-03-15T07:57:13.660Z,14.60
2024-03-15T07:59:41.921Z,13.57
2024-03-15T08:02:09.082Z,13.23
2024-03-15T08:04:39.080Z,15.50
2024-03-15T08:07:06.395Z,11.60
2024-03-15T08:09:33.266Z,13.18
2024-03-15T08:12:05.421Z,12.63
2024-03-15T08:14:34.216Z,13.70
2024-03-15T08:17:03.201Z,13.00
2024-03-15T08:19:30.043Z,11.55
2024-03-15T08:21:58.748Z,10.68
2024-03-15T08:24:27.904Z,11.82
2024-03-15T08:26:55.560Z,11.45
2024-03-15T08:29:22.751Z,8.35
2024-03-15T08:31:50.026Z,9.63
2024-03-15T08:34:17.481Z,12.10
2024-03-15T08:36:44.240Z,9.85
2024-03-15T08:39:16.605Z,13.57
2024-03-15T08:41:45.055Z,11.15
2024-03-15T08:44:12.985Z,9.77
2024-03-15T08:46:41.040Z,12.02
2024-03-15T08:49:08.440Z,10.77
2024-03-15T08:51:35.863Z,11.73
2024-03-15T08:56:32.697Z,10.30
2024-03-15T08:59:00.050Z,11.57
2024-03-15T09:01:34.354Z,10.75
2024-03-15T09:04:01.335Z,11.50
2024-03-15T09:06:29.308Z,14.02
2024-03-15T09:11:23.810Z,11.65
2024-03-15T09:13:50.861Z,11.73
2024-03-15T09:16:18.757Z,11.57
2024-03-15T09:18:45.539Z,11.15
2024-03-15T09:21:12.315Z,12.45
2024-03-15T09:23:39.275Z,12.32
2024-03-15T09:26:08.466Z,10.07
2024-03-15T09:28:41.490Z,13.13
2024-03-15T09:31:18.564Z,11.63
2024-03-15T09:33:59.539Z,10.82
2024-03-15T09:36:26.484Z,11.73
2024-03-15T09:38:55.393Z,12.10
2024-03-15T09:41:23.551Z,12.40
2024-03-15T09:43:51.277Z,12.68
2024-03-15T09:46:19.339Z,10.85
2024-03-15T09:48:46.790Z,12.68
2024-03-15T09:51:20.329Z,13.20
2024-03-15T09:53:47.144Z,12.18
2024-03-15T09:56:17.490Z,10.80
2024-03-15T09:58:55.905Z,12.48
2024-03-15T10:01:23.319Z,10.85
2024-03-15T10:03:51.881Z,14.13
2024-03-15T10:06:22.829Z,10.70
2024-03-15T10:08:49.917Z,8.10
2024-03-15T10:11:16.988Z,10.75
2024-03-15T10:13:43.870Z,11.02
2024-03-15T10:16:10.808Z,11.10
2024-03-15T10:18:41.034Z,11.60
2024-03-15T10:21:08.641Z,12.10
2024-03-15T10:23:35.376Z,12.40
2024-03-15T10:26:02.355Z,10.05
2024-03-15T10:28:30.123Z,9.65
2024-03-15T10:30:57.188Z,9.38
2024-03-15T10:33:25.305Z,11.85
2024-03-15T10:35:52.914Z,10.70
2024-03-15T10:38:20.074Z,13.57
2024-03-15T10:40:48.537Z,10.57
2024-03-15T10:43:15.419Z,10.93
2024-03-15T10:45:44.981Z,10.02
2024-03-15T10:48:14.039Z,10.68
2024-03-15T10:50:44.184Z,10.88
2024-03-15T10:53:17.834Z,10.85
2024-03-15T10:55:45.130Z,11.68
2024-03-15T10:58:12.775Z,11.48
2024-03-15T11:00:40.718Z,13.35
2024-03-15T11:05:50.871Z,10.85
2024-03-15T11:08:21.387Z,11.00
2024-03-15T11:10:56.347Z,15.25
2024-03-15T11:13:27.162Z,9.73
2024-03-15T11:15:55.321Z,10.13
2024-03-15T11:18:22.682Z,8.10
2024-03-15T11:20:58.461Z,10.90
2024-03-15T11:23:27.347Z,9.20
2024-03-15T11:26:02.047Z,11.02
2024-03-15T11:28:33.484Z,11.88
2024-03-15T11:31:01.044Z,11.23
2024-03-15T11:33:29.707Z,10.63
2024-03-15T11:35:59.021Z,12.00
2024-03-15T11:38:27.376Z,10.43
2024-03-15T11:40:57.178Z,12.52
2024-03-15T11:43:24.247Z,12.23
2024-03-15T11:45:51.731Z,12.95
2024-03-15T11:48:23.229Z,10.73
2024-03-15T11:50:51.793Z,11.73
2024-03-15T11:53:20.167Z,11.50
2024-03-15T11:55:48.183Z,8.38
2024-03-15T11:58:19.548Z,8.07
2024-03-15T12:00:53.602Z,11.23
2024-03-15T12:03:23.905Z,8.90
2024-03-15T12:05:52.315Z,10.10
2024-03-15T12:08:23.701Z,12.15
2024-03-15T12:10:52.664Z,8.93
2024-03-15T12:13:23.449Z,9.73
2024-03-15T12:15:52.312Z,8.60
2024-03-15T12:18:24.793Z,6.35
2024-03-15T12:20:52.685Z,7.95
2024-03-15T12:23:21.659Z,8.02
2024-03-15T12:25:49.651Z,6.25
2024-03-15T12:28:21.547Z,9.02
2024-03-15T12:30:58.254Z,10.63
2024-03-15T12:33:25.580Z,7.40
2024-03-15T12:35:53.839Z,11.35
2024-03-15T12:40:54.094Z,8.95
2024-03-15T12:43:21.312Z,11.05
2024-03-15T12:45:48.338Z,8.98
2024-03-15T12:48:15.261Z,12.27
2024-03-15T12:50:42.757Z,11.25
2024-03-15T12:53:15.241Z,9.80
2024-03-15T12:55:42.681Z,11.57
2024-03-15T12:58:09.927Z,11.20
2024-03-15T13:00:37.309Z,11.13
2024-03-15T13:03:17.702Z,10.93
2024-03-15T13:08:11.876Z,12.55
2024-03-15T13:10:41.613Z,10.77
2024-03-15T13:13:12.812Z,10.15
2024-03-15T13:15:39.856Z,10.82
2024-03-15T13:18:09.742Z,9.18
2024-03-15T13:20:36.647Z,7.85
2024-03-15T13:23:06.865Z,9.82
2024-03-15T13:25:38.585Z,8.48
2024-03-15T13:28:07.340Z,9.30
2024-03-15T13:30:36.889Z,9.43
2024-03-15T13:33:04.478Z,6.82
2024-03-15T13:35:32.245Z,8.05
2024-03-15T13:37:59.280Z,7.05
2024-03-15T13:40:27.484Z,9.50
2024-03-15T13:42:57.851Z,9.98
2024-03-15T13:45:25.388Z,11.98
2024-03-15T13:47:56.233Z,9.82
2024-03-15T13:50:23.762Z,10.82
2024-03-15T13:52:53.936Z,10.00
2024-03-15T13:55:24.253Z,11.00
2024-03-15T13:57:51.701Z,12.23
2024-03-15T14:00:36.242Z,10.40
2024-03-15T14:03:05.189Z,10.93
2024-03-15T14:05:38.631Z,11.88
2024-03-15T14:08:14.295Z,11.20
2024-03-15T14:10:41.930Z,10.02
2024-03-15T14:13:09.660Z,11.27
2024-03-15T14:15:41.887Z,10.02
2024-03-15T14:18:10.489Z,10.02
2024-03-15T14:20:42.759Z,9.23
2024-03-15T14:23:09.908Z,11.38
2024-03-15T14:25:37.727Z,12.25
2024-03-15T14:28:12.293Z,11.01
2024-03-15T14:30:39.550Z,13.88
2024-03-15T14:33:10.694Z,8.65
2024-03-15T14:35:39.568Z,9.77
2024-03-15T14:40:39.544Z,8.82
2024-03-15T14:43:09.148Z,9.32
2024-03-15T14:45:37.874Z,7.32
2024-03-15T14:48:12.912Z,11.15
2024-03-15T14:50:41.842Z,9.55
2024-03-15T14:53:09.313Z,9.55
2024-03-15T14:55:39.376Z,9.27
2024-03-15T14:58:08.502Z,10.65
2024-03-15T15:00:37.241Z,9.25
2024-03-15T15:03:05.576Z,9.77
2024-03-15T15:08:05.241Z,9.50
2024-03-15T15:10:35.341Z,10.15
2024-03-15T15:13:02.359Z,9.60
2024-03-15T15:15:29.940Z,8.40
2024-03-15T15:17:57.232Z,9.02
2024-03-15T15:20:24.498Z,7.95
2024-03-15T15:22:52.688Z,9.52
2024-03-15T15:27:51.465Z,10.90
2024-03-15T15:30:19.559Z,9.40
2024-03-15T15:32:50.757Z,9.52
2024-03-15T15:35:18.190Z,11.60
2024-03-15T15:37:45.745Z,10.18
2024-03-15T15:40:18.524Z,11.40
2024-03-15T15:42:49.259Z,11.18
2024-03-15T15:45:18.840Z,11.68
2024-03-15T15:47:46.554Z,10.15
2024-03-15T15:50:23.781Z,8.52
2024-03-15T15:52:51.159Z,10.93
2024-03-15T15:55:19.657Z,10.35
2024-03-15T15:57:49.713Z,11.00
2024-03-15T16:00:21.434Z,10.77
2024-03-15T16:02:49.710Z,11.18
2024-03-15T16:05:18.173Z,11.25
2024-03-15T16:07:47.080Z,11.10
2024-03-15T16:10:16.001Z,11.70
2024-03-15T16:12:44.986Z,11.60
2024-03-15T16:15:12.409Z,10.68
2024-03-15T16:17:39.488Z,10.48
2024-03-15T16:20:06.690Z,11.52
2024-03-15T16:22:34.826Z,11.75
2024-03-15T16:25:02.754Z,11.85
2024-03-15T16:27:29.866Z,13.10
2024-03-15T16:29:57.413Z,10.90
2024-03-15T16:32:24.370Z,10.38
2024-03-15T16:34:51.867Z,11.65
2024-03-15T16:37:19.742Z,12.60
2024-03-15T16:39:46.528Z,10.05
2024-03-15T16:42:15.297Z,14.25
2024-03-15T16:44:44.815Z,15.23
2024-03-15T16:47:11.944Z,13.65
2024-03-15T16:49:38.971Z,16.50
2024-03-15T16:52:09.050Z,14.52
2024-03-15T16:54:36.132Z,13.35
2024-03-15T16:57:03.127Z,12.38
2024-03-15T16:59:29.826Z,14.18
2024-03-15T17:01:56.761Z,12.38
2024-03-15T17:04:25.419Z,11.75
2024-03-15T17:06:53.871Z,12.68
2024-03-15T17:09:25.255Z,11.27
2024-03-15T17:11:52.060Z,13.38
2024-03-15T17:14:19.272Z,14.60
2024-03-15T17:16:46.197Z,13.57
2024-03-15T17:19:13.045Z,15.50
2024-03-15T17:21:40.046Z,14.07
2024-03-15T17:24:07.494Z,15.60
2024-03-15T17:26:34.400Z,18.13
2024-03-15T17:29:02.288Z,13.85
2024-03-15T17:31:30.167Z,17.25
2024-03-15T17:33:56.972Z,16.17
2024-03-15T17:36:23.857Z,18.00
2024-03-15T17:38:50.917Z,16.65
2024-03-15T17:41:17.647Z,17.88
2024-03-15T17:43:44.941Z,18.00
2024-03-15T17:46:11.693Z,12.95
2024-03-15T17:48:39.737Z,15.32
2024-03-15T17:51:10.128Z,15.27
2024-03-15T17:53:38.663Z,12.60
2024-03-15T17:56:05.952Z,10.48
2024-03-15T17:58:32.679Z,11.40
2024-03-15T18:01:02.860Z,9.63
2024-03-15T18:03:29.770Z,12.32
2024-03-15T18:05:56.892Z,11.60
2024-03-15T18:08:24.547Z,13.07
2024-03-15T18:10:51.590Z,6.63
2024-03-15T18:13:18.379Z,9.23
2024-03-15T18:15:51.825Z,10.30
2024-03-15T18:18:19.646Z,7.95
2024-03-15T18:20:49.860Z,8.57
2024-03-15T18:23:21.074Z,5.43
2024-03-15T18:26:07.565Z,6.15
2024-03-15T18:28:35.063Z,8.13
2024-03-15T18:31:18.608Z,7.55
2024-03-15T18:33:45.956Z,5.38
2024-03-15T18:36:15.380Z,5.65
2024-03-15T18:38:42.581Z,4.90
2024-03-15T18:41:10.295Z,4.30
2024-03-15T18:43:39.844Z,3.65
2024-03-15T18:46:06.851Z,4.80
2024-03-15T18:48:36.073Z,4.28
2024-03-15T18:51:06.623Z,5.20
2024-03-15T18:53:33.910Z,5.90
2024-03-15T18:56:01.162Z,5.60
2024-03-15T18:58:31.545Z,7.55
2024-03-15T19:01:01.681Z,6.05
2024-03-15T19:03:28.969Z,7.05
2024-03-15T19:05:56.099Z,6.75
2024-03-15T19:08:22.940Z,6.40
2024-03-15T19:11:04.792Z,8.82
2024-03-15T19:13:37.778Z,7.35
2024-03-15T19:16:06.327Z,4.70
2024-03-15T19:18:33.677Z,7.30
2024-03-15T19:21:03.223Z,5.50
2024-03-15T19:23:30.567Z,4.18
2024-03-15T19:25:57.541Z,6.82
2024-03-15T19:28:24.358Z,6.35
2024-03-15T19:30:51.387Z,6.28
2024-03-15T19:33:18.430Z,5.97
2024-03-15T19:35:46.151Z,5.93
2024-03-15T19:38:14.384Z,6.18
2024-03-15T19:40:41.824Z,6.35
2024-03-15T19:43:08.667Z,7.53
2024-03-15T19:45:35.764Z,7.60
2024-03-15T19:48:05.121Z,7.03
2024-03-15T19:50:32.124Z,5.45
2024-03-15T19:52:59.133Z,5.75
2024-03-15T19:55:26.681Z,5.20
2024-03-15T19:57:53.872Z,6.40
2024-03-15T20:00:21.195Z,8.18
2024-03-15T20:02:49.118Z,6.05
2024-03-15T20:05:16.050Z,8.07
2024-03-15T20:07:43.622Z,7.68
2024-03-15T20:10:15.087Z,6.88
2024-03-15T20:12:42.027Z,8.38
2024-03-15T20:15:10.314Z,10.05
2024-03-15T20:17:37.221Z,7.50
2024-03-15T20:20:04.509Z,8.38
2024-03-15T20:22:31.819Z,8.43
2024-03-15T20:24:58.558Z,8.20
2024-03-15T20:27:25.335Z,7.97
2024-03-15T20:29:52.137Z,7.35
2024-03-15T20:32:20.052Z,10.30
2024-03-15T20:34:46.808Z,9.48
2024-03-15T20:37:13.645Z,9.48
2024-03-15T20:39:44.259Z,7.53
2024-03-15T20:42:13.093Z,9.07
2024-03-15T20:44:40.393Z,9.40
2024-03-15T20:47:07.175Z,8.23
2024-03-15T20:49:34.032Z,9.23
2024-03-15T20:52:01.671Z,9.18
2024-03-15T20:54:28.595Z,9.38
2024-03-15T20:56:55.796Z,9.68
2024-03-15T20:59:22.589Z,10.48
2024-03-15T21:01:57.107Z,10.43
2024-03-15T21:04:24.843Z,10.95
2024-03-15T21:06:51.839Z,8.20
2024-03-15T21:09:20.680Z,10.75
2024-03-15T21:11:47.590Z,11.48
2024-03-15T21:14:16.366Z,8.90
2024-03-15T21:16:43.110Z,12.40
2024-03-15T21:19:09.904Z,11.70
2024-03-15T21:21:37.732Z,10.05
2024-03-15T21:24:05.672Z,13.52
2024-03-15T21:26:34.394Z,10.70
2024-03-15T21:29:01.594Z,12.27
2024-03-15T21:31:28.354Z,10.80
2024-03-15T21:33:57.042Z,12.85
2024-03-15T21:36:23.968Z,11.00
2024-03-15T21:38:52.443Z,12.35
2024-03-15T21:41:19.242Z,13.02
2024-03-15T21:43:45.866Z,9.45
2024-03-15T21:46:21.180Z,12.13
2024-03-15T21:48:48.754Z,13.45
2024-03-15T21:51:15.477Z,12.55
2024-03-15T21:53:43.653Z,12.40
2024-03-15T21:56:11.507Z,10.27
2024-03-15T21:58:38.265Z,9.00
2024-03-15T22:01:05.048Z,10.98
2024-03-15T22:03:33.375Z,11.50
2024-03-15T22:06:00.075Z,10.82
2024-03-15T22:08:26.833Z,9.27
2024-03-15T22:10:55.161Z,11.10
2024-03-15T22:15:48.561Z,10.35
2024-03-15T22:18:16.826Z,9.40
2024-03-15T22:20:48.594Z,8.40
2024-03-15T22:23:15.626Z,11.15
2024-03-15T22:25:42.656Z,10.80
2024-03-15T22:28:09.630Z,9.68
2024-03-15T22:30:36.425Z,9.52
2024-03-15T22:33:03.253Z,11.57
2024-03-15T22:35:29.962Z,9.73
2024-03-15T22:37:56.799Z,7.47
2024-03-15T22:40:24.233Z,13.15
2024-03-15T22:42:51.073Z,10.35
2024-03-15T22:45:17.907Z,8.75
2024-03-15T22:47:44.772Z,9.48
2024-03-15T22:50:12.619Z,11.57
2024-03-15T22:52:39.908Z,10.07
2024-03-15T22:55:07.408Z,10.80
2024-03-15T22:57:34.160Z,10.10
2024-03-15T23:00:00.916Z,13.30
2024-03-15T23:02:28.048Z,9.35
2024-03-15T23:04:54.813Z,10.65
2024-03-15T23:07:23.543Z,7.90
2024-03-15T23:09:51.731Z,9.30
2024-03-15T23:12:18.909Z,9.30
2024-03-15T23:14:47.469Z,8.20
2024-03-15T23:19:41.766Z,8.90
2024-03-15T23:22:08.493Z,10.02
2024-03-15T23:24:35.320Z,11.25
2024-03-15T23:27:02.439Z,10.85
2024-03-15T23:29:29.217Z,9.50
2024-03-15T23:31:55.908Z,10.10
2024-03-15T23:34:24.375Z,13.20
2024-03-15T23:36:51.248Z,7.47
2024-03-15T23:39:17.941Z,11.00
2024-03-15T23:41:44.583Z,10.15
2024-03-15T23:44:11.260Z,8.35
2024-03-15T23:46:39.406Z,9.63
2024-03-15T23:49:07.299Z,8.48
2024-03-15T23:51:34.142Z,9.20
2024-03-15T23:54:01.620Z,9.98
2024-03-15T23:56:28.396Z,11.85
2024-03-15T23:58:55.121Z,9.48
